MET'MAP v2.0
soon released !

Expected late october,
this new version will be
more efficient, smarter,
and hosted on a brand new
server x3 powerfull...
...and still free !


Not compatible ?
Try the mobile version !

LOG IN : | Subscribe | Disclaimer | Who is Orbifly ? |
ICAO code :

TAF - EDVK Kassel Calden - 15 Nov 2019 18:59 UTC
Data Sources :     NOAA   


- Airport Elevation : 909 ft
- IATA code : KSF
- No reported NOTAMs.


EDVK - Kassel Calden

Latest METAR recorded : 2015/08/11 07:50 EDVK 110750Z 29007KT 9999 SCT011 BKN014 19/17 Q1018 RMK ATIS I
TAF TAF EDVK
Valid from the 15 at 18:00 until the 16 at 03:00 UTC


151700Z 1518/1603 VRB03KT 9999 SCT015
PROB30
TEMPO 1522/1603 RA

Source NOAA


MET'MAP, your aeronautical weather chart ! - Copyright ORBIFLY December 2007

Programming & Development : Alexandra Zaïnal
Co-Developer : Marc-Olivier Méhu
Technical & hardware support : Manuel Goepfert
Concept & Financing : Baudouin d'Aumeries